< Typhoon 197222 1972 Season Typhoon 197224 >
Typhoon 197223 (LORNA)
General InformationTrack Information on Google Maps || Disaster Info.ResourceGoogle EarthGE AnimationAtom FeedGeoJSON
Detalied Best Track (Time Zone = UTC)
Year Month Day Hour Lat. Long. Pressure (hPa) Wind (kt) Class Image Chart
1972 9 27 06 15.0 125.0 1008 0 2 -- Chart
1972 9 27 12 15.5 123.3 1008 0 2 -- Chart
1972 9 27 18 16.0 122.9 1008 0 2 -- Chart
1972 9 28 00 16.6 121.8 1008 0 2 -- Chart
1972 9 28 06 17.0 121.0 1008 0 2 -- Chart
1972 9 28 12 17.0 120.4 1008 0 2 -- Chart
1972 9 28 18 17.0 119.8 1008 0 2 -- Chart
1972 9 29 00 17.0 119.2 1008 0 2 -- Chart
1972 9 29 06 17.0 118.6 1006 0 2 -- Chart
1972 9 29 12 17.0 118.0 1006 0 2 -- Chart
1972 9 29 18 17.0 117.5 1006 0 2 -- Chart
1972 9 30 00 17.0 116.9 1006 0 2 -- Chart
1972 9 30 06 17.0 116.3 1006 0 2 -- Chart
1972 9 30 12 17.0 115.6 1006 0 2 -- Chart
1972 9 30 18 17.0 115.2 1002 0 2 -- Chart
1972 10 1 00 17.0 114.5 1000 0 2 -- Chart
1972 10 1 06 17.5 113.5 990 0 9 -- Chart
1972 10 1 12 17.7 112.2 990 0 9 -- Chart
1972 10 1 18 17.9 110.8 990 0 9 -- Chart
1972 10 2 00 18.0 109.5 990 0 9 -- Chart
1972 10 2 06 18.1 108.4 990 0 9 -- Chart
1972 10 2 12 18.2 107.3 990 0 9 -- Chart
1972 10 2 18 18.2 106.3 990 0 9 -- Chart
1972 10 3 00 18.2 105.2 998 0 9 -- Chart
1972 10 3 06 18.3 104.0 1004 0 2 -- Chart
1972 10 3 12 18.0 103.0 1006 0 2 -- Chart
Japan Meteorological Agency Best Track Data | Correction Date : 1989-06-01
< Typhoon 197222 1972 Season Typhoon 197224 >

Help